Decoded Metar for PAFB (FORT WAINWRIGHT in AK, USA) (IATA:FBK) | Meteo·Mobile Aviation Weather
aviador You're here:

PAFB Decoded Metar

FORT WAINWRIGHT in AK, USA
Report Time2018-12-18 16:04:00
UTC Time2018-12-18 16:50:32
Flight Rules lifr LIFR
WindCalm
Visibility9999 m
Phenomena:Light Snow
Clouds:Broken 003 Hf
Overcast 017 Hf
Expected CloudBase > 1,200 ft AGL from Temp-Dew spread
Ceiling300 ft
Temp-18°C (ISA -32)
Dew Point-21°C (78% RH)
AAT-21.6°C
QNH995 hPa
Density Alt-2,992 ft
Elevation449 ft
Report Wrong Elevation
Raw Report
PAFB 181604Z COR 00000KT 8SM -SN BKN003 OVC017 M18/M21 A2937 RMK
AO2A SLP962 $ COR 1610=

Extra information for PAFB:More info

Metar Taf Metar & Taf Last 4 Metars F.Rules Stats Wind Profile Meteogram Temp Stats Airport Information Weather charts Add Link Nearby VenuesMetar ALERT Operation Metar Decoded Social comments

AIRNAV info for PAFB